sensor_id;sensor_type;location;lat;lon;timestamp;P1;durP1;ratioP1;P2;durP2;ratioP2
57858;SDS011;49153;45.568;11.894;2023-01-28T00:00:50;28.58;;;14.85;;
57858;SDS011;49153;45.568;11.894;2023-01-28T00:03:15;26.42;;;14.30;;
57858;SDS011;49153;45.568;11.894;2023-01-28T00:05:41;29.77;;;15.10;;
57858;SDS011;49153;45.568;11.894;2023-01-28T00:08:07;27.67;;;14.90;;
57858;SDS011;49153;45.568;11.894;2023-01-28T00:10:33;29.33;;;13.82;;
57858;SDS011;49153;45.568;11.894;2023-01-28T00:12:58;27.35;;;12.63;;
57858;SDS011;49153;45.568;11.894;2023-01-28T00:15:23;25.67;;;13.45;;
57858;SDS011;49153;45.568;11.894;2023-01-28T00:17:49;27.70;;;12.98;;
57858;SDS011;49153;45.568;11.894;2023-01-28T00:20:15;24.85;;;13.40;;
57858;SDS011;49153;45.568;11.894;2023-01-28T00:22:45;28.90;;;14.85;;
57858;SDS011;49153;45.568;11.894;2023-01-28T00:25:12;24.10;;;11.80;;
57858;SDS011;49153;45.568;11.894;2023-01-28T00:27:37;25.85;;;12.68;;
57858;SDS011;49153;45.568;11.894;2023-01-28T00:30:03;26.50;;;14.07;;
57858;SDS011;49153;45.568;11.894;2023-01-28T00:32:28;26.05;;;12.82;;
57858;SDS011;49153;45.568;11.894;2023-01-28T00:34:54;26.77;;;14.50;;
57858;SDS011;49153;45.568;11.894;2023-01-28T00:37:19;24.48;;;12.48;;
57858;SDS011;49153;45.568;11.894;2023-01-28T00:39:45;27.08;;;13.63;;
57858;SDS011;49153;45.568;11.894;2023-01-28T00:42:11;26.10;;;13.65;;
57858;SDS011;49153;45.568;11.894;2023-01-28T00:44:36;26.38;;;13.07;;
57858;SDS011;49153;45.568;11.894;2023-01-28T00:47:03;29.63;;;14.35;;
57858;SDS011;49153;45.568;11.894;2023-01-28T00:49:28;27.33;;;14.55;;
57858;SDS011;49153;45.568;11.894;2023-01-28T00:51:55;25.58;;;12.68;;
57858;SDS011;49153;45.568;11.894;2023-01-28T00:54:20;29.60;;;14.20;;
57858;SDS011;49153;45.568;11.894;2023-01-28T00:56:45;26.90;;;13.30;;
57858;SDS011;49153;45.568;11.894;2023-01-28T00:59:11;27.85;;;13.75;;
57858;SDS011;49153;45.568;11.894;2023-01-28T01:01:38;26.75;;;13.77;;
57858;SDS011;49153;45.568;11.894;2023-01-28T01:04:03;25.60;;;13.00;;
57858;SDS011;49153;45.568;11.894;2023-01-28T01:06:30;28.10;;;14.00;;
57858;SDS011;49153;45.568;11.894;2023-01-28T01:09:02;24.52;;;11.88;;
57858;SDS011;49153;45.568;11.894;2023-01-28T01:11:29;25.77;;;13.48;;
57858;SDS011;49153;45.568;11.894;2023-01-28T01:13:55;23.77;;;12.40;;
57858;SDS011;49153;45.568;11.894;2023-01-28T01:16:24;26.77;;;13.27;;
57858;SDS011;49153;45.568;11.894;2023-01-28T01:18:52;25.13;;;12.02;;
57858;SDS011;49153;45.568;11.894;2023-01-28T01:21:19;26.33;;;13.57;;
57858;SDS011;49153;45.568;11.894;2023-01-28T01:23:46;27.80;;;13.60;;
57858;SDS011;49153;45.568;11.894;2023-01-28T01:26:12;24.60;;;12.73;;
57858;SDS011;49153;45.568;11.894;2023-01-28T01:28:38;25.08;;;13.63;;
57858;SDS011;49153;45.568;11.894;2023-01-28T01:31:15;25.90;;;12.43;;
57858;SDS011;49153;45.568;11.894;2023-01-28T01:33:42;25.88;;;13.90;;
57858;SDS011;49153;45.568;11.894;2023-01-28T01:36:09;26.73;;;13.85;;
57858;SDS011;49153;45.568;11.894;2023-01-28T01:38:36;30.80;;;14.57;;
57858;SDS011;49153;45.568;11.894;2023-01-28T01:41:02;26.25;;;13.10;;
57858;SDS011;49153;45.568;11.894;2023-01-28T01:43:48;28.15;;;13.80;;
57858;SDS011;49153;45.568;11.894;2023-01-28T01:46:31;29.08;;;13.98;;
57858;SDS011;49153;45.568;11.894;2023-01-28T01:51:37;21.27;;;11.18;;
57858;SDS011;49153;45.568;11.894;2023-01-28T01:54:04;24.45;;;12.50;;
57858;SDS011;49153;45.568;11.894;2023-01-28T01:56:32;26.45;;;12.23;;
57858;SDS011;49153;45.568;11.894;2023-01-28T01:59:02;15.77;;;9.07;;
57858;SDS011;49153;45.568;11.894;2023-01-28T02:01:29;24.48;;;12.50;;
57858;SDS011;49153;45.568;11.894;2023-01-28T02:03:59;26.90;;;13.00;;
57858;SDS011;49153;45.568;11.894;2023-01-28T02:06:25;25.83;;;13.23;;
57858;SDS011;49153;45.568;11.894;2023-01-28T02:08:53;25.48;;;13.77;;
57858;SDS011;49153;45.568;11.894;2023-01-28T02:11:19;27.38;;;13.27;;
57858;SDS011;49153;45.568;11.894;2023-01-28T02:13:47;24.63;;;13.15;;
57858;SDS011;49153;45.568;11.894;2023-01-28T02:16:17;28.10;;;13.30;;
57858;SDS011;49153;45.568;11.894;2023-01-28T02:18:43;28.35;;;14.45;;
57858;SDS011;49153;45.568;11.894;2023-01-28T02:31:54;23.10;;;12.13;;
57858;SDS011;49153;45.568;11.894;2023-01-28T02:37:16;27.63;;;13.23;;
57858;SDS011;49153;45.568;11.894;2023-01-28T02:39:48;25.42;;;12.52;;
57858;SDS011;49153;45.568;11.894;2023-01-28T02:42:17;26.58;;;13.45;;
57858;SDS011;49153;45.568;11.894;2023-01-28T02:44:47;25.83;;;13.20;;
57858;SDS011;49153;45.568;11.894;2023-01-28T02:47:12;27.52;;;13.70;;
57858;SDS011;49153;45.568;11.894;2023-01-28T02:50:01;24.17;;;12.75;;
57858;SDS011;49153;45.568;11.894;2023-01-28T02:55:57;23.92;;;12.43;;
57858;SDS011;49153;45.568;11.894;2023-01-28T02:58:34;23.48;;;11.82;;
57858;SDS011;49153;45.568;11.894;2023-01-28T03:01:22;26.50;;;12.38;;
57858;SDS011;49153;45.568;11.894;2023-01-28T03:04:06;23.95;;;12.60;;
57858;SDS011;49153;45.568;11.894;2023-01-28T03:06:39;26.35;;;12.20;;
57858;SDS011;49153;45.568;11.894;2023-01-28T03:09:13;26.88;;;12.93;;
57858;SDS011;49153;45.568;11.894;2023-01-28T03:14:57;24.50;;;11.98;;
57858;SDS011;49153;45.568;11.894;2023-01-28T03:17:54;27.87;;;13.73;;
57858;SDS011;49153;45.568;11.894;2023-01-28T03:24:02;27.63;;;12.43;;
57858;SDS011;49153;45.568;11.894;2023-01-28T03:27:02;22.98;;;12.20;;
57858;SDS011;49153;45.568;11.894;2023-01-28T03:29:53;24.98;;;12.32;;
57858;SDS011;49153;45.568;11.894;2023-01-28T03:32:41;26.17;;;12.80;;
57858;SDS011;49153;45.568;11.894;2023-01-28T03:35:27;25.00;;;13.25;;
57858;SDS011;49153;45.568;11.894;2023-01-28T03:38:13;28.35;;;13.57;;
57858;SDS011;49153;45.568;11.894;2023-01-28T03:40:51;27.75;;;14.13;;
57858;SDS011;49153;45.568;11.894;2023-01-28T03:43:19;25.08;;;13.10;;
57858;SDS011;49153;45.568;11.894;2023-01-28T03:45:44;25.90;;;13.23;;
57858;SDS011;49153;45.568;11.894;2023-01-28T03:48:11;33.30;;;14.52;;
57858;SDS011;49153;45.568;11.894;2023-01-28T03:50:39;24.42;;;13.77;;
57858;SDS011;49153;45.568;11.894;2023-01-28T03:53:04;27.65;;;13.43;;
57858;SDS011;49153;45.568;11.894;2023-01-28T03:55:39;26.38;;;14.32;;
57858;SDS011;49153;45.568;11.894;2023-01-28T03:58:09;25.98;;;12.95;;
57858;SDS011;49153;45.568;11.894;2023-01-28T04:00:35;27.15;;;14.20;;
57858;SDS011;49153;45.568;11.894;2023-01-28T04:03:09;33.60;;;14.30;;
57858;SDS011;49153;45.568;11.894;2023-01-28T04:05:45;29.40;;;14.07;;
57858;SDS011;49153;45.568;11.894;2023-01-28T04:08:31;27.23;;;13.18;;
57858;SDS011;49153;45.568;11.894;2023-01-28T04:10:57;29.30;;;13.95;;
57858;SDS011;49153;45.568;11.894;2023-01-28T04:13:22;27.05;;;13.57;;
57858;SDS011;49153;45.568;11.894;2023-01-28T04:15:48;26.70;;;13.55;;
57858;SDS011;49153;45.568;11.894;2023-01-28T04:18:15;22.73;;;12.77;;
57858;SDS011;49153;45.568;11.894;2023-01-28T04:20:40;25.80;;;12.80;;
57858;SDS011;49153;45.568;11.894;2023-01-28T04:23:06;27.52;;;12.90;;
57858;SDS011;49153;45.568;11.894;2023-01-28T04:25:32;25.02;;;12.70;;
57858;SDS011;49153;45.568;11.894;2023-01-28T04:27:57;27.58;;;13.52;;
57858;SDS011;49153;45.568;11.894;2023-01-28T04:30:23;26.45;;;13.40;;
57858;SDS011;49153;45.568;11.894;2023-01-28T04:32:48;27.67;;;14.07;;
57858;SDS011;49153;45.568;11.894;2023-01-28T04:35:17;25.10;;;13.13;;
57858;SDS011;49153;45.568;11.894;2023-01-28T04:37:43;29.65;;;13.80;;
57858;SDS011;49153;45.568;11.894;2023-01-28T04:40:10;30.50;;;14.38;;
57858;SDS011;49153;45.568;11.894;2023-01-28T04:42:37;28.60;;;14.30;;
57858;SDS011;49153;45.568;11.894;2023-01-28T04:45:03;25.20;;;13.27;;
57858;SDS011;49153;45.568;11.894;2023-01-28T04:47:29;27.95;;;14.27;;
57858;SDS011;49153;45.568;11.894;2023-01-28T04:49:54;27.67;;;14.30;;
57858;SDS011;49153;45.568;11.894;2023-01-28T04:52:20;25.65;;;13.40;;
57858;SDS011;49153;45.568;11.894;2023-01-28T04:54:45;24.40;;;13.23;;
57858;SDS011;49153;45.568;11.894;2023-01-28T04:57:10;27.05;;;13.85;;
57858;SDS011;49153;45.568;11.894;2023-01-28T04:59:36;30.23;;;14.57;;
57858;SDS011;49153;45.568;11.894;2023-01-28T05:02:01;26.45;;;13.65;;
57858;SDS011;49153;45.568;11.894;2023-01-28T05:04:27;30.35;;;15.07;;
57858;SDS011;49153;45.568;11.894;2023-01-28T05:06:52;29.00;;;14.98;;
57858;SDS011;49153;45.568;11.894;2023-01-28T05:09:17;31.42;;;15.68;;
57858;SDS011;49153;45.568;11.894;2023-01-28T05:11:43;30.77;;;15.80;;
57858;SDS011;49153;45.568;11.894;2023-01-28T05:14:09;28.25;;;15.00;;
57858;SDS011;49153;45.568;11.894;2023-01-28T05:16:34;26.60;;;14.32;;
57858;SDS011;49153;45.568;11.894;2023-01-28T05:19:00;28.83;;;13.77;;
57858;SDS011;49153;45.568;11.894;2023-01-28T05:21:26;27.73;;;13.88;;
57858;SDS011;49153;45.568;11.894;2023-01-28T05:23:52;29.17;;;14.40;;
57858;SDS011;49153;45.568;11.894;2023-01-28T05:26:19;27.42;;;14.10;;
57858;SDS011;49153;45.568;11.894;2023-01-28T05:28:44;32.60;;;14.45;;
57858;SDS011;49153;45.568;11.894;2023-01-28T05:31:10;27.27;;;13.30;;
57858;SDS011;49153;45.568;11.894;2023-01-28T05:33:35;27.33;;;13.60;;
57858;SDS011;49153;45.568;11.894;2023-01-28T05:36:02;27.05;;;13.73;;
57858;SDS011;49153;45.568;11.894;2023-01-28T05:38:27;26.17;;;12.80;;
57858;SDS011;49153;45.568;11.894;2023-01-28T05:40:53;26.63;;;13.43;;
57858;SDS011;49153;45.568;11.894;2023-01-28T05:43:18;25.13;;;12.48;;
57858;SDS011;49153;45.568;11.894;2023-01-28T05:45:44;29.02;;;13.93;;
57858;SDS011;49153;45.568;11.894;2023-01-28T05:48:11;29.63;;;14.50;;
57858;SDS011;49153;45.568;11.894;2023-01-28T05:50:37;31.08;;;13.07;;
57858;SDS011;49153;45.568;11.894;2023-01-28T05:53:04;26.85;;;13.50;;
57858;SDS011;49153;45.568;11.894;2023-01-28T05:55:30;28.35;;;14.02;;
57858;SDS011;49153;45.568;11.894;2023-01-28T05:57:55;26.42;;;13.07;;
57858;SDS011;49153;45.568;11.894;2023-01-28T06:00:21;29.75;;;13.68;;
57858;SDS011;49153;45.568;11.894;2023-01-28T06:02:46;29.55;;;14.35;;
57858;SDS011;49153;45.568;11.894;2023-01-28T06:05:12;33.08;;;14.35;;
57858;SDS011;49153;45.568;11.894;2023-01-28T06:07:37;32.97;;;15.05;;
57858;SDS011;49153;45.568;11.894;2023-01-28T06:10:03;29.20;;;13.85;;
57858;SDS011;49153;45.568;11.894;2023-01-28T06:12:28;32.28;;;13.75;;
57858;SDS011;49153;45.568;11.894;2023-01-28T06:14:55;32.13;;;14.15;;
57858;SDS011;49153;45.568;11.894;2023-01-28T06:17:20;27.95;;;14.73;;
57858;SDS011;49153;45.568;11.894;2023-01-28T06:19:46;33.08;;;14.65;;
57858;SDS011;49153;45.568;11.894;2023-01-28T06:22:11;30.42;;;14.25;;
57858;SDS011;49153;45.568;11.894;2023-01-28T06:24:37;28.58;;;13.98;;
57858;SDS011;49153;45.568;11.894;2023-01-28T06:27:02;31.50;;;15.43;;
57858;SDS011;49153;45.568;11.894;2023-01-28T06:29:27;35.88;;;15.73;;
57858;SDS011;49153;45.568;11.894;2023-01-28T06:31:53;31.23;;;14.80;;
57858;SDS011;49153;45.568;11.894;2023-01-28T06:34:18;29.02;;;14.43;;
57858;SDS011;49153;45.568;11.894;2023-01-28T06:36:44;32.28;;;15.88;;
57858;SDS011;49153;45.568;11.894;2023-01-28T06:39:09;33.88;;;14.82;;
57858;SDS011;49153;45.568;11.894;2023-01-28T06:41:35;32.55;;;15.30;;
57858;SDS011;49153;45.568;11.894;2023-01-28T06:44:00;31.33;;;14.80;;
57858;SDS011;49153;45.568;11.894;2023-01-28T06:46:26;28.30;;;14.20;;
57858;SDS011;49153;45.568;11.894;2023-01-28T06:48:52;27.60;;;13.55;;
57858;SDS011;49153;45.568;11.894;2023-01-28T06:51:17;29.67;;;14.15;;
57858;SDS011;49153;45.568;11.894;2023-01-28T06:53:43;26.60;;;13.38;;
57858;SDS011;49153;45.568;11.894;2023-01-28T06:56:08;35.75;;;15.75;;
57858;SDS011;49153;45.568;11.894;2023-01-28T06:58:34;35.60;;;15.95;;
57858;SDS011;49153;45.568;11.894;2023-01-28T07:00:59;29.08;;;14.65;;
57858;SDS011;49153;45.568;11.894;2023-01-28T07:03:25;31.27;;;15.65;;
57858;SDS011;49153;45.568;11.894;2023-01-28T07:05:50;34.90;;;16.95;;
57858;SDS011;49153;45.568;11.894;2023-01-28T07:08:16;30.63;;;15.00;;
57858;SDS011;49153;45.568;11.894;2023-01-28T07:10:42;31.58;;;14.52;;
57858;SDS011;49153;45.568;11.894;2023-01-28T07:13:08;30.80;;;14.52;;
57858;SDS011;49153;45.568;11.894;2023-01-28T07:15:34;31.48;;;15.32;;
57858;SDS011;49153;45.568;11.894;2023-01-28T07:17:59;32.75;;;15.98;;
57858;SDS011;49153;45.568;11.894;2023-01-28T07:20:25;33.08;;;16.80;;
57858;SDS011;49153;45.568;11.894;2023-01-28T07:22:50;30.58;;;14.55;;
57858;SDS011;49153;45.568;11.894;2023-01-28T07:25:16;34.55;;;14.95;;
57858;SDS011;49153;45.568;11.894;2023-01-28T07:27:49;35.25;;;16.20;;
57858;SDS011;49153;45.568;11.894;2023-01-28T07:30:16;34.38;;;16.42;;
57858;SDS011;49153;45.568;11.894;2023-01-28T07:32:42;36.20;;;16.38;;
57858;SDS011;49153;45.568;11.894;2023-01-28T07:35:08;42.58;;;17.77;;
57858;SDS011;49153;45.568;11.894;2023-01-28T07:37:33;39.53;;;16.67;;
57858;SDS011;49153;45.568;11.894;2023-01-28T07:39:59;37.35;;;16.02;;
57858;SDS011;49153;45.568;11.894;2023-01-28T07:42:24;37.20;;;16.15;;
57858;SDS011;49153;45.568;11.894;2023-01-28T07:44:49;33.53;;;15.88;;
57858;SDS011;49153;45.568;11.894;2023-01-28T07:47:15;38.38;;;16.85;;
57858;SDS011;49153;45.568;11.894;2023-01-28T07:49:41;33.28;;;15.35;;
57858;SDS011;49153;45.568;11.894;2023-01-28T07:52:07;34.03;;;16.15;;
57858;SDS011;49153;45.568;11.894;2023-01-28T07:54:33;37.83;;;16.83;;
57858;SDS011;49153;45.568;11.894;2023-01-28T07:56:59;33.00;;;17.02;;
57858;SDS011;49153;45.568;11.894;2023-01-28T07:59:24;35.85;;;17.75;;
57858;SDS011;49153;45.568;11.894;2023-01-28T08:01:50;39.15;;;18.58;;
57858;SDS011;49153;45.568;11.894;2023-01-28T08:04:15;40.97;;;19.25;;
57858;SDS011;49153;45.568;11.894;2023-01-28T08:06:41;39.05;;;18.02;;
57858;SDS011;49153;45.568;11.894;2023-01-28T08:09:06;35.97;;;18.02;;
57858;SDS011;49153;45.568;11.894;2023-01-28T08:11:41;35.45;;;17.52;;
57858;SDS011;49153;45.568;11.894;2023-01-28T08:14:07;35.45;;;17.30;;
57858;SDS011;49153;45.568;11.894;2023-01-28T08:16:32;36.42;;;17.23;;
57858;SDS011;49153;45.568;11.894;2023-01-28T08:18:57;33.38;;;15.60;;
57858;SDS011;49153;45.568;11.894;2023-01-28T08:21:23;31.25;;;14.85;;
57858;SDS011;49153;45.568;11.894;2023-01-28T08:23:48;30.88;;;15.32;;
57858;SDS011;49153;45.568;11.894;2023-01-28T08:26:14;32.50;;;16.23;;
57858;SDS011;49153;45.568;11.894;2023-01-28T08:28:39;31.58;;;14.90;;
57858;SDS011;49153;45.568;11.894;2023-01-28T08:31:04;32.10;;;14.20;;
57858;SDS011;49153;45.568;11.894;2023-01-28T08:33:30;33.25;;;17.05;;
57858;SDS011;49153;45.568;11.894;2023-01-28T08:35:56;24.55;;;13.48;;
57858;SDS011;49153;45.568;11.894;2023-01-28T08:38:21;25.70;;;13.75;;
57858;SDS011;49153;45.568;11.894;2023-01-28T08:40:47;23.58;;;13.57;;
57858;SDS011;49153;45.568;11.894;2023-01-28T08:43:14;27.42;;;13.27;;
57858;SDS011;49153;45.568;11.894;2023-01-28T08:45:41;24.65;;;13.02;;
57858;SDS011;49153;45.568;11.894;2023-01-28T08:48:07;26.08;;;14.10;;
57858;SDS011;49153;45.568;11.894;2023-01-28T08:50:36;28.58;;;12.57;;
57858;SDS011;49153;45.568;11.894;2023-01-28T08:53:08;19.27;;;10.38;;
57858;SDS011;49153;45.568;11.894;2023-01-28T08:55:36;20.15;;;9.45;;
57858;SDS011;49153;45.568;11.894;2023-01-28T08:58:02;19.33;;;8.65;;
57858;SDS011;49153;45.568;11.894;2023-01-28T09:00:32;16.85;;;8.90;;
57858;SDS011;49153;45.568;11.894;2023-01-28T09:02:59;19.20;;;10.18;;
57858;SDS011;49153;45.568;11.894;2023-01-28T09:05:24;18.95;;;9.55;;
57858;SDS011;49153;45.568;11.894;2023-01-28T09:07:50;16.85;;;8.75;;
57858;SDS011;49153;45.568;11.894;2023-01-28T09:10:16;18.77;;;10.27;;
57858;SDS011;49153;45.568;11.894;2023-01-28T09:12:44;19.98;;;9.85;;
57858;SDS011;49153;45.568;11.894;2023-01-28T09:15:09;17.30;;;9.07;;
57858;SDS011;49153;45.568;11.894;2023-01-28T09:17:35;17.90;;;8.68;;
57858;SDS011;49153;45.568;11.894;2023-01-28T09:20:01;18.80;;;8.82;;
57858;SDS011;49153;45.568;11.894;2023-01-28T09:22:26;13.77;;;7.40;;
57858;SDS011;49153;45.568;11.894;2023-01-28T09:24:52;21.98;;;10.05;;
57858;SDS011;49153;45.568;11.894;2023-01-28T09:27:17;18.20;;;9.27;;
57858;SDS011;49153;45.568;11.894;2023-01-28T09:29:42;17.30;;;9.07;;
57858;SDS011;49153;45.568;11.894;2023-01-28T09:32:08;16.83;;;9.45;;
57858;SDS011;49153;45.568;11.894;2023-01-28T09:34:33;21.02;;;10.43;;
57858;SDS011;49153;45.568;11.894;2023-01-28T09:36:59;17.08;;;9.52;;
57858;SDS011;49153;45.568;11.894;2023-01-28T09:39:24;14.60;;;8.40;;
57858;SDS011;49153;45.568;11.894;2023-01-28T09:47:18;15.13;;;7.70;;
57858;SDS011;49153;45.568;11.894;2023-01-28T09:49:50;15.73;;;8.40;;
57858;SDS011;49153;45.568;11.894;2023-01-28T09:52:18;16.67;;;7.82;;
57858;SDS011;49153;45.568;11.894;2023-01-28T09:55:11;14.73;;;7.80;;
57858;SDS011;49153;45.568;11.894;2023-01-28T09:57:49;16.00;;;8.18;;
57858;SDS011;49153;45.568;11.894;2023-01-28T10:00:17;14.20;;;7.75;;
57858;SDS011;49153;45.568;11.894;2023-01-28T10:05:51;11.27;;;5.95;;
57858;SDS011;49153;45.568;11.894;2023-01-28T10:22:40;17.38;;;7.68;;
57858;SDS011;49153;45.568;11.894;2023-01-28T10:25:20;14.85;;;7.57;;
57858;SDS011;49153;45.568;11.894;2023-01-28T10:27:47;14.45;;;8.70;;
57858;SDS011;49153;45.568;11.894;2023-01-28T10:30:21;16.77;;;9.40;;
57858;SDS011;49153;45.568;11.894;2023-01-28T10:33:00;17.50;;;9.02;;
57858;SDS011;49153;45.568;11.894;2023-01-28T10:35:32;16.58;;;8.55;;
57858;SDS011;49153;45.568;11.894;2023-01-28T10:38:04;17.45;;;8.65;;
57858;SDS011;49153;45.568;11.894;2023-01-28T10:40:33;15.32;;;8.35;;
57858;SDS011;49153;45.568;11.894;2023-01-28T10:42:59;15.30;;;7.82;;
57858;SDS011;49153;45.568;11.894;2023-01-28T10:45:33;15.10;;;8.05;;
57858;SDS011;49153;45.568;11.894;2023-01-28T10:48:16;16.02;;;7.97;;
57858;SDS011;49153;45.568;11.894;2023-01-28T10:50:56;14.57;;;8.32;;
57858;SDS011;49153;45.568;11.894;2023-01-28T10:53:32;16.27;;;9.13;;
57858;SDS011;49153;45.568;11.894;2023-01-28T10:55:59;16.63;;;9.00;;
57858;SDS011;49153;45.568;11.894;2023-01-28T10:58:26;14.30;;;8.73;;
57858;SDS011;49153;45.568;11.894;2023-01-28T11:01:05;16.58;;;8.82;;
57858;SDS011;49153;45.568;11.894;2023-01-28T11:03:31;15.75;;;8.20;;
57858;SDS011;49153;45.568;11.894;2023-01-28T11:05:59;14.70;;;8.48;;
57858;SDS011;49153;45.568;11.894;2023-01-28T11:08:26;15.60;;;8.63;;
57858;SDS011;49153;45.568;11.894;2023-01-28T11:10:54;15.50;;;8.57;;
57858;SDS011;49153;45.568;11.894;2023-01-28T11:13:26;17.48;;;9.68;;
57858;SDS011;49153;45.568;11.894;2023-01-28T11:18:22;18.27;;;10.23;;
57858;SDS011;49153;45.568;11.894;2023-01-28T11:20:55;15.90;;;9.80;;
57858;SDS011;49153;45.568;11.894;2023-01-28T11:23:25;15.25;;;8.85;;
57858;SDS011;49153;45.568;11.894;2023-01-28T11:26:02;15.00;;;8.07;;
57858;SDS011;49153;45.568;11.894;2023-01-28T11:28:39;16.50;;;9.15;;
57858;SDS011;49153;45.568;11.894;2023-01-28T11:31:05;17.23;;;9.50;;
57858;SDS011;49153;45.568;11.894;2023-01-28T11:33:36;15.68;;;8.57;;
57858;SDS011;49153;45.568;11.894;2023-01-28T11:38:46;16.92;;;9.50;;
57858;SDS011;49153;45.568;11.894;2023-01-28T11:41:22;14.07;;;8.57;;
57858;SDS011;49153;45.568;11.894;2023-01-28T11:43:54;15.98;;;8.90;;
57858;SDS011;49153;45.568;11.894;2023-01-28T11:52:17;15.27;;;8.75;;
57858;SDS011;49153;45.568;11.894;2023-01-28T11:54:51;15.45;;;8.38;;
57858;SDS011;49153;45.568;11.894;2023-01-28T12:05:52;17.75;;;9.75;;
57858;SDS011;49153;45.568;11.894;2023-01-28T12:08:28;16.00;;;9.07;;
57858;SDS011;49153;45.568;11.894;2023-01-28T12:22:22;16.80;;;10.15;;
57858;SDS011;49153;45.568;11.894;2023-01-28T12:28:04;17.90;;;9.90;;
57858;SDS011;49153;45.568;11.894;2023-01-28T12:31:11;15.55;;;9.27;;
57858;SDS011;49153;45.568;11.894;2023-01-28T12:41:58;15.77;;;8.70;;
57858;SDS011;49153;45.568;11.894;2023-01-28T12:44:35;14.35;;;8.32;;
57858;SDS011;49153;45.568;11.894;2023-01-28T12:47:16;14.00;;;8.93;;
57858;SDS011;49153;45.568;11.894;2023-01-28T12:50:01;13.65;;;7.50;;
57858;SDS011;49153;45.568;11.894;2023-01-28T12:52:38;14.82;;;8.70;;
57858;SDS011;49153;45.568;11.894;2023-01-28T12:55:19;14.90;;;8.00;;
57858;SDS011;49153;45.568;11.894;2023-01-28T12:57:57;13.30;;;7.55;;
57858;SDS011;49153;45.568;11.894;2023-01-28T13:06:09;12.88;;;7.50;;
57858;SDS011;49153;45.568;11.894;2023-01-28T13:08:39;12.68;;;7.55;;
57858;SDS011;49153;45.568;11.894;2023-01-28T13:11:05;13.15;;;7.95;;
57858;SDS011;49153;45.568;11.894;2023-01-28T13:13:39;16.20;;;8.68;;
57858;SDS011;49153;45.568;11.894;2023-01-28T13:16:07;14.52;;;8.38;;
57858;SDS011;49153;45.568;11.894;2023-01-28T13:20:59;11.50;;;6.93;;
57858;SDS011;49153;45.568;11.894;2023-01-28T13:25:55;11.80;;;6.60;;
57858;SDS011;49153;45.568;11.894;2023-01-28T13:28:25;10.48;;;6.15;;
57858;SDS011;49153;45.568;11.894;2023-01-28T13:31:01;9.57;;;6.07;;
57858;SDS011;49153;45.568;11.894;2023-01-28T13:33:29;11.98;;;6.10;;
57858;SDS011;49153;45.568;11.894;2023-01-28T13:35:56;10.80;;;5.88;;
57858;SDS011;49153;45.568;11.894;2023-01-28T13:38:25;8.73;;;5.50;;
57858;SDS011;49153;45.568;11.894;2023-01-28T13:40:55;8.27;;;5.47;;
57858;SDS011;49153;45.568;11.894;2023-01-28T13:46:13;8.75;;;5.28;;
57858;SDS011;49153;45.568;11.894;2023-01-28T13:48:52;11.32;;;5.95;;
57858;SDS011;49153;45.568;11.894;2023-01-28T13:51:24;11.40;;;6.40;;
57858;SDS011;49153;45.568;11.894;2023-01-28T13:54:04;11.55;;;6.38;;
57858;SDS011;49153;45.568;11.894;2023-01-28T13:56:40;10.32;;;5.68;;
57858;SDS011;49153;45.568;11.894;2023-01-28T13:59:32;11.45;;;6.00;;
57858;SDS011;49153;45.568;11.894;2023-01-28T14:04:56;10.60;;;6.40;;
57858;SDS011;49153;45.568;11.894;2023-01-28T14:12:43;11.65;;;6.18;;
57858;SDS011;49153;45.568;11.894;2023-01-28T14:17:43;11.15;;;5.78;;
57858;SDS011;49153;45.568;11.894;2023-01-28T14:20:18;9.88;;;6.13;;
57858;SDS011;49153;45.568;11.894;2023-01-28T14:22:47;11.27;;;6.70;;
57858;SDS011;49153;45.568;11.894;2023-01-28T14:25:15;12.40;;;6.63;;
57858;SDS011;49153;45.568;11.894;2023-01-28T14:27:51;14.55;;;8.90;;
57858;SDS011;49153;45.568;11.894;2023-01-28T14:32:52;12.15;;;7.07;;
57858;SDS011;49153;45.568;11.894;2023-01-28T14:35:21;9.93;;;5.93;;
57858;SDS011;49153;45.568;11.894;2023-01-28T14:37:52;9.85;;;6.03;;
57858;SDS011;49153;45.568;11.894;2023-01-28T14:40:18;10.63;;;6.05;;
57858;SDS011;49153;45.568;11.894;2023-01-28T14:42:46;9.18;;;5.88;;
57858;SDS011;49153;45.568;11.894;2023-01-28T14:48:07;12.05;;;6.10;;
57858;SDS011;49153;45.568;11.894;2023-01-28T14:58:50;9.93;;;6.10;;
57858;SDS011;49153;45.568;11.894;2023-01-28T15:01:24;12.05;;;6.70;;
57858;SDS011;49153;45.568;11.894;2023-01-28T15:03:54;9.95;;;6.32;;
57858;SDS011;49153;45.568;11.894;2023-01-28T15:06:21;10.65;;;6.65;;
57858;SDS011;49153;45.568;11.894;2023-01-28T15:08:49;12.27;;;6.60;;
57858;SDS011;49153;45.568;11.894;2023-01-28T15:11:17;11.07;;;6.28;;
57858;SDS011;49153;45.568;11.894;2023-01-28T15:13:47;10.93;;;6.32;;
57858;SDS011;49153;45.568;11.894;2023-01-28T15:16:26;10.48;;;6.75;;
57858;SDS011;49153;45.568;11.894;2023-01-28T15:18:54;12.20;;;6.25;;
57858;SDS011;49153;45.568;11.894;2023-01-28T15:21:22;9.77;;;6.18;;
57858;SDS011;49153;45.568;11.894;2023-01-28T15:23:54;11.38;;;7.32;;
57858;SDS011;49153;45.568;11.894;2023-01-28T15:26:23;14.00;;;6.85;;
57858;SDS011;49153;45.568;11.894;2023-01-28T15:28:50;11.82;;;7.00;;
57858;SDS011;49153;45.568;11.894;2023-01-28T15:31:24;12.23;;;6.72;;
57858;SDS011;49153;45.568;11.894;2023-01-28T15:33:55;14.18;;;6.60;;
57858;SDS011;49153;45.568;11.894;2023-01-28T15:36:23;12.05;;;6.82;;
57858;SDS011;49153;45.568;11.894;2023-01-28T15:38:50;10.88;;;6.05;;
57858;SDS011;49153;45.568;11.894;2023-01-28T15:41:16;10.55;;;6.30;;
57858;SDS011;49153;45.568;11.894;2023-01-28T15:43:45;12.95;;;6.78;;
57858;SDS011;49153;45.568;11.894;2023-01-28T15:46:13;11.73;;;6.57;;
57858;SDS011;49153;45.568;11.894;2023-01-28T15:48:40;11.68;;;6.53;;
57858;SDS011;49153;45.568;11.894;2023-01-28T15:51:17;12.15;;;6.47;;
57858;SDS011;49153;45.568;11.894;2023-01-28T15:53:55;12.70;;;7.13;;
57858;SDS011;49153;45.568;11.894;2023-01-28T16:50:19;19.75;;;10.63;;
57858;SDS011;49153;45.568;11.894;2023-01-28T16:52:47;19.90;;;10.90;;
57858;SDS011;49153;45.568;11.894;2023-01-28T16:55:16;22.15;;;11.73;;
57858;SDS011;49153;45.568;11.894;2023-01-28T16:57:43;26.17;;;13.38;;
57858;SDS011;49153;45.568;11.894;2023-01-28T17:00:25;26.48;;;15.27;;
57858;SDS011;49153;45.568;11.894;2023-01-28T17:02:51;27.27;;;14.45;;
57858;SDS011;49153;45.568;11.894;2023-01-28T17:05:18;25.98;;;13.85;;
57858;SDS011;49153;45.568;11.894;2023-01-28T17:07:45;20.67;;;11.40;;
57858;SDS011;49153;45.568;11.894;2023-01-28T17:10:12;21.23;;;10.93;;
57858;SDS011;49153;45.568;11.894;2023-01-28T17:12:38;25.42;;;11.93;;
57858;SDS011;49153;45.568;11.894;2023-01-28T17:15:03;26.80;;;13.85;;
57858;SDS011;49153;45.568;11.894;2023-01-28T17:17:29;27.33;;;13.82;;
57858;SDS011;49153;45.568;11.894;2023-01-28T17:19:55;26.27;;;14.80;;
57858;SDS011;49153;45.568;11.894;2023-01-28T17:22:20;23.67;;;12.77;;
57858;SDS011;49153;45.568;11.894;2023-01-28T17:24:45;19.23;;;10.07;;
57858;SDS011;49153;45.568;11.894;2023-01-28T17:27:11;20.73;;;11.75;;